X  Close Metar Aviation Weather Data     LFLC Clermont-Ferrand Auvergne Airport
Temperature
16°C Temperature
11°C Dewpoint
72% Humidity



Wind
26 KM/H
16 MPH
7 M/S
14 KTS



250°
WSW
Current Conditions

Mostly Cloudy Mostly Cloudy
Pressure 1004.92 (hPa) - 29.68 (inHg)
Visibility 6.2 (mile) - 10 (km)
Airport
Airport-code LFLC

Location: Clermont-Ferrand Auvergne Airport
Distance: 100 (km)

Metar:
LFLC 280030Z AUTO 25014KT 9999 BKN029 BKN048 BKN170 16/11 Q1005 TEMPO 4000 RA

Time: 28-09-2022 02:30 CEST